createdAt,value
2018-04-14T00:02:24.534Z,9.32
2018-04-14T00:04:52.654Z,9.28
2018-04-14T00:07:20.785Z,9.23
2018-04-14T00:09:48.919Z,9.16
2018-04-14T00:12:16.999Z,9.09
2018-04-14T00:14:45.129Z,9.07
2018-04-14T00:17:13.239Z,9.02
2018-04-14T00:19:41.357Z,9.02
2018-04-14T00:22:09.490Z,9.00
2018-04-14T00:24:37.590Z,9.01
2018-04-14T00:27:05.785Z,8.99
2018-04-14T00:29:33.961Z,8.97
2018-04-14T00:32:02.090Z,8.97
2018-04-14T00:34:30.206Z,9.07
2018-04-14T00:36:58.343Z,9.27
2018-04-14T00:39:26.447Z,9.57
2018-04-14T00:41:54.572Z,9.84
2018-04-14T00:44:22.687Z,10.21
2018-04-14T00:46:50.799Z,10.17
2018-04-14T00:49:18.907Z,10.14
2018-04-14T00:51:47.049Z,10.11
2018-04-14T00:54:15.169Z,10.18
2018-04-14T00:56:43.281Z,10.12
2018-04-14T00:59:11.419Z,10.15
2018-04-14T01:01:39.515Z,10.14
2018-04-14T01:04:07.644Z,10.08
2018-04-14T01:06:35.806Z,10.10
2018-04-14T01:09:03.925Z,10.07
2018-04-14T01:11:32.029Z,9.94
2018-04-14T01:14:00.168Z,9.78
2018-04-14T01:16:28.286Z,9.64
2018-04-14T01:18:56.410Z,9.54
2018-04-14T01:21:24.565Z,9.48
2018-04-14T01:23:52.689Z,9.42
2018-04-14T01:26:20.815Z,9.39
2018-04-14T01:28:48.940Z,9.36
2018-04-14T01:31:17.061Z,9.31
2018-04-14T01:33:45.164Z,9.27
2018-04-14T01:36:13.312Z,9.25
2018-04-14T01:38:41.422Z,9.22
2018-04-14T01:41:09.842Z,9.13
2018-04-14T01:43:37.959Z,9.15
2018-04-14T01:46:06.063Z,9.09
2018-04-14T01:48:34.184Z,9.04
2018-04-14T01:51:02.331Z,8.99
2018-04-14T01:53:30.461Z,8.96
2018-04-14T01:55:58.562Z,8.95
2018-04-14T01:58:26.707Z,8.93
2018-04-14T02:00:54.824Z,8.93
2018-04-14T02:03:22.967Z,8.88
2018-04-14T02:05:51.074Z,8.87
2018-04-14T02:08:19.206Z,8.87
2018-04-14T02:10:47.342Z,8.85
2018-04-14T02:13:15.538Z,8.86
2018-04-14T02:15:43.641Z,8.85
2018-04-14T02:18:11.793Z,8.86
2018-04-14T02:20:39.909Z,8.83
2018-04-14T02:23:08.021Z,8.81
2018-04-14T02:25:36.154Z,8.76
2018-04-14T02:28:04.275Z,8.71
2018-04-14T02:30:32.424Z,8.66
2018-04-14T02:33:00.512Z,8.61
2018-04-14T02:35:28.654Z,8.58
2018-04-14T02:37:56.759Z,8.53
2018-04-14T02:40:24.871Z,8.50
2018-04-14T02:42:53.010Z,8.50
2018-04-14T02:45:21.111Z,8.48
2018-04-14T02:47:49.241Z,8.47
2018-04-14T02:50:17.386Z,8.45
2018-04-14T02:52:45.501Z,8.43
2018-04-14T02:55:13.689Z,8.38
2018-04-14T02:57:41.804Z,8.32
2018-04-14T03:00:09.911Z,8.28
2018-04-14T03:02:38.011Z,8.23
2018-04-14T03:05:06.299Z,8.18
2018-04-14T03:07:34.495Z,8.14
2018-04-14T03:10:02.614Z,8.10
2018-04-14T03:12:30.757Z,8.08
2018-04-14T03:14:58.863Z,8.05
2018-04-14T03:17:26.991Z,8.03
2018-04-14T03:19:55.110Z,8.01
2018-04-14T03:22:23.230Z,7.99
2018-04-14T03:24:51.370Z,7.97
2018-04-14T03:27:19.493Z,7.86
2018-04-14T03:29:47.599Z,7.90
2018-04-14T03:32:15.699Z,7.86
2018-04-14T03:34:43.856Z,7.83
2018-04-14T03:37:11.979Z,7.80
2018-04-14T03:39:40.093Z,7.78
2018-04-14T03:42:08.221Z,7.77
2018-04-14T03:44:36.341Z,7.76
2018-04-14T03:47:04.499Z,7.74
2018-04-14T03:49:32.638Z,7.71
2018-04-14T03:52:00.758Z,7.69
2018-04-14T03:54:28.866Z,7.66
2018-04-14T03:56:56.981Z,7.65
2018-04-14T03:59:25.139Z,7.61
2018-04-14T04:01:53.271Z,7.59
2018-04-14T04:04:21.398Z,7.58
2018-04-14T04:06:49.522Z,7.55
2018-04-14T04:09:17.647Z,7.52
2018-04-14T04:11:45.772Z,7.48
2018-04-14T04:14:14.377Z,7.45
2018-04-14T04:16:42.500Z,7.43
2018-04-14T04:19:22.344Z,7.41
2018-04-14T04:22:02.302Z,7.37
2018-04-14T04:24:42.305Z,7.39
2018-04-14T04:27:10.406Z,7.45
2018-04-14T04:29:38.572Z,7.53
2018-04-14T04:32:06.714Z,7.60
2018-04-14T04:34:34.839Z,7.65
2018-04-14T04:37:02.942Z,7.71
2018-04-14T04:39:31.166Z,7.72
2018-04-14T04:41:59.300Z,7.74
2018-04-14T04:44:27.410Z,7.81
2018-04-14T04:46:55.625Z,7.84
2018-04-14T04:49:23.745Z,7.89
2018-04-14T04:51:51.887Z,7.93
2018-04-14T04:54:20.015Z,7.98
2018-04-14T04:56:48.171Z,8.04
2018-04-14T04:59:16.289Z,8.08
2018-04-14T05:01:44.418Z,8.12
2018-04-14T05:04:12.538Z,8.15
2018-04-14T05:06:40.655Z,8.20
2018-04-14T05:09:08.780Z,8.27
2018-04-14T05:11:36.922Z,8.36
2018-04-14T05:14:05.017Z,8.43
2018-04-14T05:16:33.145Z,8.49
2018-04-14T05:19:01.277Z,8.57
2018-04-14T05:21:29.389Z,8.64
2018-04-14T05:23:57.522Z,8.69
2018-04-14T05:26:25.649Z,8.75
2018-04-14T05:28:53.870Z,8.79
2018-04-14T05:31:22.158Z,8.82
2018-04-14T05:33:50.355Z,8.84
2018-04-14T05:36:18.472Z,8.88
2018-04-14T05:38:46.602Z,8.90
2018-04-14T05:41:14.705Z,9.00
2018-04-14T05:43:42.828Z,9.11
2018-04-14T05:46:10.957Z,9.28
2018-04-14T05:48:39.066Z,9.55
2018-04-14T05:51:08.114Z,9.95
2018-04-14T05:53:36.248Z,9.96
2018-04-14T05:56:04.408Z,9.88
2018-04-14T05:58:32.517Z,9.75
2018-04-14T06:01:00.618Z,9.72
2018-04-14T06:03:36.570Z,9.75
2018-04-14T06:06:04.746Z,9.93
2018-04-14T06:08:32.864Z,10.06
2018-04-14T06:11:00.971Z,9.99
2018-04-14T06:13:29.122Z,10.17
2018-04-14T06:15:57.235Z,10.30
2018-04-14T06:18:25.591Z,10.45
2018-04-14T06:20:53.751Z,10.44
2018-04-14T06:23:21.888Z,10.54
2018-04-14T06:25:50.008Z,10.69
2018-04-14T06:28:18.234Z,10.85
2018-04-14T06:30:52.989Z,10.97
2018-04-14T06:33:21.213Z,11.03
2018-04-14T06:35:49.372Z,11.05
2018-04-14T06:38:17.561Z,11.20
2018-04-14T06:40:45.706Z,11.36
2018-04-14T06:43:13.828Z,11.39
2018-04-14T06:45:41.948Z,11.63
2018-04-14T06:48:10.120Z,11.72
2018-04-14T06:50:38.275Z,11.93
2018-04-14T06:53:06.500Z,12.08
2018-04-14T06:55:34.627Z,12.17
2018-04-14T06:58:02.743Z,12.44
2018-04-14T07:00:30.851Z,12.64
2018-04-14T07:02:59.010Z,12.78
2018-04-14T07:05:27.154Z,12.93
2018-04-14T07:07:55.262Z,12.88
2018-04-14T07:10:23.553Z,12.80
2018-04-14T07:12:51.673Z,12.75
2018-04-14T07:15:19.823Z,13.01
2018-04-14T07:17:48.243Z,13.34
2018-04-14T07:20:16.384Z,13.23
2018-04-14T07:22:44.539Z,13.29
2018-04-14T07:25:12.762Z,13.43
2018-04-14T07:27:40.874Z,13.67
2018-04-14T07:30:08.979Z,13.79
2018-04-14T07:32:37.112Z,13.83
2018-04-14T07:35:05.274Z,13.61
2018-04-14T07:37:33.447Z,13.62
2018-04-14T07:40:01.570Z,13.76
2018-04-14T07:42:29.691Z,13.86
2018-04-14T07:44:57.802Z,13.89
2018-04-14T07:47:25.955Z,14.02
2018-04-14T07:49:54.098Z,14.21
2018-04-14T07:52:22.261Z,14.22
2018-04-14T07:54:50.397Z,14.29
2018-04-14T07:57:18.494Z,14.36
2018-04-14T07:59:46.603Z,14.49
2018-04-14T08:02:14.776Z,14.82
2018-04-14T08:04:42.885Z,14.81
2018-04-14T08:07:11.027Z,15.00
2018-04-14T08:09:39.153Z,15.34
2018-04-14T08:12:07.292Z,15.24
2018-04-14T08:14:35.415Z,15.53
2018-04-14T08:17:03.542Z,15.70
2018-04-14T08:19:31.698Z,15.72
2018-04-14T08:21:59.912Z,15.84
2018-04-14T08:24:28.102Z,16.13
2018-04-14T08:26:56.216Z,16.38
2018-04-14T08:29:24.328Z,16.53
2018-04-14T08:31:52.481Z,16.45
2018-04-14T08:34:20.602Z,16.19
2018-04-14T08:36:48.776Z,16.35
2018-04-14T08:39:16.924Z,16.59
2018-04-14T08:41:45.057Z,16.50
2018-04-14T08:44:13.168Z,16.68
2018-04-14T08:46:41.300Z,16.89
2018-04-14T08:49:09.428Z,17.21
2018-04-14T08:51:37.577Z,17.42
2018-04-14T08:54:05.703Z,17.21
2018-04-14T08:56:34.523Z,17.27
2018-04-14T08:59:02.653Z,17.48
2018-04-14T09:01:30.861Z,17.69
2018-04-14T09:03:58.969Z,17.75
2018-04-14T09:06:27.125Z,18.12
2018-04-14T09:08:55.271Z,18.30
2018-04-14T09:11:23.415Z,18.05
2018-04-14T09:13:51.607Z,18.08
2018-04-14T09:16:19.741Z,18.40
2018-04-14T09:18:47.879Z,18.49
2018-04-14T09:21:15.996Z,18.52
2018-04-14T09:23:44.137Z,18.71
2018-04-14T09:26:12.316Z,18.93
2018-04-14T09:28:40.446Z,18.79
2018-04-14T09:31:08.594Z,19.10
2018-04-14T09:33:36.726Z,19.42
2018-04-14T09:36:05.713Z,19.63
2018-04-14T09:38:33.928Z,19.33
2018-04-14T09:41:02.044Z,19.53
2018-04-14T09:43:30.581Z,19.42
2018-04-14T09:45:58.711Z,19.74
2018-04-14T09:48:26.837Z,19.89
2018-04-14T09:50:54.992Z,20.03
2018-04-14T09:53:23.118Z,19.97
2018-04-14T09:55:51.674Z,20.02
2018-04-14T09:58:19.809Z,20.25
2018-04-14T10:00:55.146Z,20.38
2018-04-14T10:03:23.260Z,20.34
2018-04-14T10:05:51.386Z,20.27
2018-04-14T10:08:19.519Z,20.50
2018-04-14T10:10:47.660Z,20.89
2018-04-14T10:13:15.813Z,20.67
2018-04-14T10:15:44.079Z,20.71
2018-04-14T10:18:12.205Z,20.71
2018-04-14T10:20:41.205Z,20.48
2018-04-14T10:23:10.023Z,20.33
2018-04-14T10:25:39.064Z,20.52
2018-04-14T10:28:07.199Z,20.86
2018-04-14T10:30:35.441Z,21.30
2018-04-14T10:33:04.478Z,21.12
2018-04-14T10:35:33.135Z,20.80
2018-04-14T10:38:01.421Z,21.05
2018-04-14T10:40:30.592Z,20.91
2018-04-14T10:42:58.759Z,21.54
2018-04-14T10:45:26.913Z,21.68
2018-04-14T10:47:55.026Z,22.05
2018-04-14T10:50:23.184Z,22.07
2018-04-14T10:52:52.191Z,21.96
2018-04-14T10:55:20.331Z,21.93
2018-04-14T10:57:48.471Z,22.17
2018-04-14T11:00:16.588Z,22.45
2018-04-14T11:02:44.722Z,21.85
2018-04-14T11:05:12.858Z,21.54
2018-04-14T11:07:40.998Z,21.39
2018-04-14T11:10:09.229Z,21.24
2018-04-14T11:12:37.995Z,21.23
2018-04-14T11:15:06.234Z,21.65
2018-04-14T11:17:34.357Z,21.77
2018-04-14T11:20:02.481Z,22.16
2018-04-14T11:22:30.629Z,22.17
2018-04-14T11:24:58.756Z,22.42
2018-04-14T11:27:26.935Z,22.02
2018-04-14T11:29:55.095Z,22.22
2018-04-14T11:32:23.222Z,22.15
2018-04-14T11:34:51.425Z,22.07
2018-04-14T11:37:19.567Z,21.83
2018-04-14T11:39:47.719Z,22.01
2018-04-14T11:42:15.840Z,22.27
2018-04-14T11:44:44.203Z,22.30
2018-04-14T11:47:12.388Z,22.01
2018-04-14T11:49:40.555Z,22.14
2018-04-14T11:52:08.703Z,22.34
2018-04-14T11:54:36.827Z,22.24
2018-04-14T11:57:04.967Z,22.32
2018-04-14T11:59:33.272Z,22.67
2018-04-14T12:02:04.656Z,22.39
2018-04-14T12:04:35.006Z,22.29
2018-04-14T12:07:03.225Z,22.27
2018-04-14T12:09:31.360Z,22.33
2018-04-14T12:11:59.539Z,22.70
2018-04-14T12:14:27.683Z,22.92
2018-04-14T12:16:55.829Z,22.54
2018-04-14T12:19:23.951Z,22.43
2018-04-14T12:21:52.247Z,22.35
2018-04-14T12:24:20.372Z,22.65
2018-04-14T12:26:48.501Z,22.76
2018-04-14T12:29:16.633Z,22.68
2018-04-14T12:31:44.798Z,22.95
2018-04-14T12:34:14.001Z,22.74
2018-04-14T12:36:42.649Z,22.61
2018-04-14T12:39:10.773Z,22.78
2018-04-14T12:41:38.971Z,22.31
2018-04-14T12:44:07.123Z,22.32
2018-04-14T12:46:35.294Z,22.45
2018-04-14T12:49:03.461Z,22.26
2018-04-14T12:51:31.585Z,22.40
2018-04-14T12:53:59.701Z,22.43
2018-04-14T12:56:27.818Z,22.37
2018-04-14T12:58:55.960Z,22.36
2018-04-14T13:01:24.106Z,22.29
2018-04-14T13:03:52.232Z,22.04
2018-04-14T13:06:20.371Z,22.27
2018-04-14T13:08:48.495Z,22.44
2018-04-14T13:11:18.570Z,22.65
2018-04-14T13:13:46.810Z,22.85
2018-04-14T13:16:14.940Z,22.88
2018-04-14T13:18:44.362Z,22.65
2018-04-14T13:21:12.543Z,22.67
2018-04-14T19:14:48.769Z,17.44
2018-04-14T19:17:16.943Z,17.39
2018-04-14T19:19:45.152Z,17.20
2018-04-14T19:22:13.296Z,17.11
2018-04-14T19:24:41.493Z,17.09
2018-04-14T19:27:09.628Z,17.10
2018-04-14T19:29:37.752Z,17.04
2018-04-14T19:32:06.136Z,17.01
2018-04-14T19:34:34.747Z,17.01
2018-04-14T19:37:03.534Z,17.05
2018-04-14T19:39:31.877Z,16.98
2018-04-14T19:42:01.785Z,16.91
2018-04-14T19:44:30.181Z,16.89
2018-04-14T19:46:58.282Z,16.78
2018-04-14T19:49:26.398Z,16.76
2018-04-14T19:51:54.672Z,16.73
2018-04-14T19:54:22.793Z,16.68
2018-04-14T19:56:50.934Z,16.63
2018-04-14T19:59:19.899Z,16.57
2018-04-14T20:01:48.379Z,16.53
2018-04-14T20:04:16.719Z,16.55
2018-04-14T20:06:44.889Z,16.49
2018-04-14T20:09:13.023Z,16.42
2018-04-14T20:11:41.132Z,16.38
2018-04-14T20:14:09.260Z,16.25
2018-04-14T20:16:38.959Z,16.11
2018-04-14T20:19:07.110Z,15.89
2018-04-14T20:21:35.395Z,15.74
2018-04-14T20:24:03.514Z,15.60
2018-04-14T20:26:31.658Z,15.44
2018-04-14T20:28:59.816Z,15.26
2018-04-14T20:31:27.941Z,15.14
2018-04-14T20:33:56.122Z,15.04
2018-04-14T20:36:24.270Z,14.95
2018-04-14T20:38:52.384Z,14.91
2018-04-14T20:41:20.500Z,14.87
2018-04-14T20:43:48.667Z,14.80
2018-04-14T20:46:16.787Z,14.74
2018-04-14T20:48:44.902Z,14.68
2018-04-14T20:51:13.384Z,14.62
2018-04-14T20:53:41.503Z,14.56
2018-04-14T20:56:09.626Z,14.55
2018-04-14T20:58:37.985Z,14.52
2018-04-14T21:01:06.091Z,14.47
2018-04-14T21:03:34.204Z,14.39
2018-04-14T21:06:02.355Z,14.31
2018-04-14T21:08:30.469Z,14.24
2018-04-14T21:10:58.723Z,14.17
2018-04-14T21:13:26.875Z,14.11
2018-04-14T21:15:54.989Z,13.99
2018-04-14T21:18:23.102Z,13.97
2018-04-14T21:20:51.251Z,13.90
2018-04-14T21:23:19.373Z,13.81
2018-04-14T21:25:47.507Z,13.72
2018-04-14T21:28:15.663Z,13.61
2018-04-14T21:30:43.768Z,13.54
2018-04-14T21:33:11.891Z,13.45
2018-04-14T21:35:40.073Z,13.42
2018-04-14T21:38:08.187Z,13.41
2018-04-14T21:40:36.315Z,13.54
2018-04-14T21:43:04.467Z,13.82
2018-04-14T21:45:32.589Z,13.92
2018-04-14T21:48:00.714Z,13.88
2018-04-14T21:50:28.847Z,13.89
2018-04-14T21:52:56.966Z,13.85
2018-04-14T21:55:25.098Z,13.79
2018-04-14T21:57:53.362Z,13.72
2018-04-14T22:00:21.477Z,13.62
2018-04-14T22:02:49.582Z,13.65
2018-04-14T22:05:17.746Z,13.75
2018-04-14T22:07:45.867Z,13.93
2018-04-14T22:10:13.985Z,13.87
2018-04-14T22:12:42.136Z,14.07
2018-04-14T22:15:10.250Z,14.08
2018-04-14T22:17:38.366Z,14.08
2018-04-14T22:20:06.534Z,14.08
2018-04-14T22:22:34.821Z,14.07
2018-04-14T22:25:02.953Z,14.13
2018-04-14T22:27:31.100Z,14.18
2018-04-14T22:29:59.219Z,14.26
2018-04-14T22:32:28.226Z,14.33
2018-04-14T22:34:56.359Z,14.28
2018-04-14T22:37:24.483Z,14.22
2018-04-14T22:39:52.611Z,14.16
2018-04-14T22:42:23.780Z,14.11
2018-04-14T22:44:51.891Z,14.02
2018-04-14T22:47:19.997Z,13.95
2018-04-14T22:49:48.142Z,13.90
2018-04-14T22:52:16.258Z,13.89
2018-04-14T22:54:44.372Z,13.89
2018-04-14T22:57:12.531Z,13.92
2018-04-14T22:59:40.636Z,13.95
2018-04-14T23:02:08.759Z,13.94
2018-04-14T23:04:36.950Z,13.93
2018-04-14T23:07:05.088Z,13.88
2018-04-14T23:09:33.248Z,13.66
2018-04-14T23:12:01.378Z,13.53
2018-04-14T23:14:29.506Z,13.51
2018-04-14T23:16:57.614Z,13.43
2018-04-14T23:19:25.782Z,13.44
2018-04-14T23:21:53.894Z,13.53
2018-04-14T23:24:22.167Z,13.33
2018-04-14T23:26:50.312Z,13.07
2018-04-14T23:29:18.417Z,12.91
2018-04-14T23:31:46.531Z,12.81
2018-04-14T23:34:14.663Z,12.68
2018-04-14T23:36:42.779Z,12.49
2018-04-14T23:39:10.913Z,12.22
2018-04-14T23:41:39.043Z,11.93
2018-04-14T23:44:07.156Z,11.68
2018-04-14T23:46:35.263Z,11.53
2018-04-14T23:49:03.407Z,11.40
2018-04-14T23:51:31.532Z,11.30
2018-04-14T23:53:59.661Z,11.21
2018-04-14T23:56:28.968Z,11.14
2018-04-14T23:58:57.083Z,10.96
